createdAt,value
2023-04-09T00:02:16.255Z,101088.39
2023-04-09T00:04:42.886Z,101088.05
2023-04-09T00:07:09.532Z,101087.76
2023-04-09T00:09:36.277Z,101091.14
2023-04-09T00:12:03.549Z,101089.30
2023-04-09T00:14:30.571Z,101089.00
2023-04-09T00:16:57.226Z,101097.02
2023-04-09T00:19:23.913Z,101101.92
2023-04-09T00:21:50.971Z,101106.13
2023-04-09T00:24:17.645Z,101103.88
2023-04-09T00:26:44.350Z,101104.91
2023-04-09T00:29:11.094Z,101101.89
2023-04-09T00:31:37.742Z,101097.52
2023-04-09T00:34:04.427Z,101094.84
2023-04-09T00:36:31.380Z,101091.08
2023-04-09T00:38:58.937Z,101092.53
2023-04-09T00:41:25.692Z,101094.28
2023-04-09T00:43:52.426Z,101099.90
2023-04-09T00:46:19.232Z,101100.22
2023-04-09T00:48:46.272Z,101104.63
2023-04-09T00:51:12.846Z,101104.86
2023-04-09T00:53:39.701Z,101105.36
2023-04-09T00:56:07.029Z,101106.02
2023-04-09T00:58:33.814Z,101103.30
2023-04-09T01:01:00.556Z,101108.57
2023-04-09T01:03:27.423Z,101111.34
2023-04-09T01:06:23.667Z,101110.70
2023-04-09T01:08:56.691Z,101113.95
2023-04-09T01:11:36.556Z,101118.49
2023-04-09T01:14:22.055Z,101117.77
2023-04-09T01:16:55.867Z,101119.56
2023-04-09T01:19:34.859Z,101120.79
2023-04-09T01:22:05.927Z,101124.44
2023-04-09T01:24:53.204Z,101128.72
2023-04-09T01:27:44.344Z,101129.53
2023-04-09T01:30:15.400Z,101130.66
2023-04-09T01:32:43.864Z,101130.30
2023-04-09T01:35:10.655Z,101131.07
2023-04-09T01:37:39.024Z,101132.99
2023-04-09T01:40:07.408Z,101130.73
2023-04-09T01:42:36.628Z,101131.73
2023-04-09T01:45:05.789Z,101132.56
2023-04-09T01:47:33.310Z,101137.73
2023-04-09T01:50:00.426Z,101138.36
2023-04-09T01:52:27.255Z,101139.35
2023-04-09T01:54:53.887Z,101137.89
2023-04-09T01:57:20.472Z,101136.92
2023-04-09T01:59:47.065Z,101132.25
2023-04-09T02:02:21.237Z,101133.83
2023-04-09T02:04:51.869Z,101131.88
2023-04-09T02:07:22.981Z,101132.73
2023-04-09T02:09:51.965Z,101135.17
2023-04-09T02:12:21.724Z,101132.31
2023-04-09T02:14:52.175Z,101132.75
2023-04-09T02:17:19.465Z,101131.77
2023-04-09T02:19:47.971Z,101131.88
2023-04-09T02:22:16.180Z,101135.73
2023-04-09T02:24:43.209Z,101138.16
2023-04-09T02:27:10.517Z,101139.69
2023-04-09T02:29:39.613Z,101140.39
2023-04-09T02:32:07.108Z,101140.31
2023-04-09T02:34:33.813Z,101142.84
2023-04-09T02:37:00.607Z,101142.66
2023-04-09T02:39:27.320Z,101142.34
2023-04-09T02:41:53.976Z,101143.77
2023-04-09T02:44:20.578Z,101142.10
2023-04-09T02:46:49.630Z,101144.64
2023-04-09T02:49:16.618Z,101143.86
2023-04-09T02:51:43.206Z,101145.23
2023-04-09T02:54:09.979Z,101146.67
2023-04-09T02:56:36.639Z,101146.74
2023-04-09T02:59:03.306Z,101143.58
2023-04-09T03:01:30.380Z,101141.81
2023-04-09T03:03:57.531Z,101140.52
2023-04-09T03:06:26.004Z,101139.82
2023-04-09T03:08:52.699Z,101139.73
2023-04-09T03:11:19.603Z,101138.93
2023-04-09T03:13:46.251Z,101138.67
2023-04-09T03:16:13.795Z,101140.42
2023-04-09T03:18:40.443Z,101142.32
2023-04-09T03:21:08.345Z,101142.84
2023-04-09T03:23:37.241Z,101144.17
2023-04-09T03:26:06.399Z,101143.78
2023-04-09T03:28:42.849Z,101142.90
2023-04-09T03:31:09.531Z,101140.79
2023-04-09T03:33:37.370Z,101139.86
2023-04-09T03:36:04.482Z,101140.92
2023-04-09T03:38:42.696Z,101142.27
2023-04-09T03:41:20.305Z,101141.73
2023-04-09T03:43:47.003Z,101141.16
2023-04-09T03:46:18.429Z,101135.17
2023-04-09T03:48:47.084Z,101138.34
2023-04-09T03:51:15.337Z,101137.10
2023-04-09T03:53:47.214Z,101140.78
2023-04-09T03:56:14.058Z,101138.71
2023-04-09T03:58:41.083Z,101141.23
2023-04-09T04:01:08.234Z,101143.36
2023-04-09T04:03:41.829Z,101147.20
2023-04-09T04:06:21.928Z,101147.90
2023-04-09T04:08:57.282Z,101150.84
2023-04-09T04:11:31.335Z,101149.55
2023-04-09T04:13:58.002Z,101150.23
2023-04-09T04:16:24.906Z,101147.33
2023-04-09T04:18:52.355Z,101146.35
2023-04-09T04:21:19.682Z,101148.16
2023-04-09T04:23:53.804Z,101147.83
2023-04-09T04:26:24.159Z,101148.17
2023-04-09T04:28:51.531Z,101152.10
2023-04-09T04:31:50.854Z,101153.94
2023-04-09T04:34:19.484Z,101155.60
2023-04-09T04:36:49.578Z,101157.83
2023-04-09T04:39:17.909Z,101160.89
2023-04-09T04:41:54.912Z,101163.67
2023-04-09T04:44:23.778Z,101165.50
2023-04-09T04:46:54.961Z,101166.95
2023-04-09T04:49:21.696Z,101165.73
2023-04-09T04:51:48.644Z,101168.23
2023-04-09T04:54:16.123Z,101167.59
2023-04-09T04:56:48.749Z,101166.53
2023-04-09T04:59:28.284Z,101164.92
2023-04-09T05:02:13.740Z,101168.59
2023-04-09T05:04:49.462Z,101170.25
2023-04-09T05:07:17.220Z,101167.32
2023-04-09T05:09:52.889Z,101170.77
2023-04-09T05:12:19.595Z,101177.67
2023-04-09T05:14:49.632Z,101175.54
2023-04-09T05:17:16.825Z,101178.06
2023-04-09T05:19:44.611Z,101181.30
2023-04-09T05:22:11.835Z,101179.17
2023-04-09T05:24:39.079Z,101179.27
2023-04-09T05:27:06.260Z,101177.55
2023-04-09T05:29:33.133Z,101179.19
2023-04-09T05:32:00.135Z,101179.41
2023-04-09T05:34:31.068Z,101181.34
2023-04-09T05:36:58.058Z,101183.81
2023-04-09T05:39:25.012Z,101190.77
2023-04-09T05:41:52.519Z,101188.98
2023-04-09T05:44:24.876Z,101197.94
2023-04-09T05:46:59.705Z,101198.73
2023-04-09T05:49:31.766Z,101200.13
2023-04-09T05:51:58.877Z,101200.55
2023-04-09T05:54:27.693Z,101199.26
2023-04-09T05:56:54.434Z,101198.92
2023-04-09T05:59:21.609Z,101199.09
2023-04-09T06:01:48.337Z,101204.95
2023-04-09T06:04:15.201Z,101200.99
2023-04-09T06:06:41.985Z,101205.76
2023-04-09T06:09:08.607Z,101205.28
2023-04-09T06:11:37.456Z,101208.11
2023-04-09T06:14:04.099Z,101212.15
2023-04-09T06:16:30.743Z,101216.48
2023-04-09T06:18:57.758Z,101220.17
2023-04-09T06:21:24.363Z,101218.96
2023-04-09T06:23:51.683Z,101219.88
2023-04-09T06:26:18.711Z,101218.23
2023-04-09T06:28:45.308Z,101217.89
2023-04-09T06:31:12.265Z,101217.54
2023-04-09T06:33:39.043Z,101218.31
2023-04-09T06:36:06.117Z,101224.08
2023-04-09T06:38:32.806Z,101226.60
2023-04-09T06:40:59.424Z,101227.17
2023-04-09T06:43:26.093Z,101228.52
2023-04-09T06:45:52.852Z,101230.90
2023-04-09T06:48:19.499Z,101228.95
2023-04-09T06:50:46.244Z,101226.27
2023-04-09T06:53:12.943Z,101228.89
2023-04-09T06:55:40.120Z,101229.55
2023-04-09T06:58:06.943Z,101237.04
2023-04-09T07:00:33.522Z,101233.33
2023-04-09T07:03:00.872Z,101236.29
2023-04-09T07:05:27.782Z,101236.79
2023-04-09T07:07:54.352Z,101239.60
2023-04-09T07:10:21.185Z,101240.39
2023-04-09T07:12:47.841Z,101237.39
2023-04-09T07:15:14.578Z,101237.33
2023-04-09T07:17:41.589Z,101241.55
2023-04-09T07:20:08.532Z,101240.14
2023-04-09T07:22:36.703Z,101241.66
2023-04-09T07:25:04.025Z,101244.29
2023-04-09T07:27:30.802Z,101247.67
2023-04-09T07:29:58.851Z,101243.59
2023-04-09T07:32:28.215Z,101245.87
2023-04-09T07:34:55.972Z,101244.74
2023-04-09T07:37:23.300Z,101247.14
2023-04-09T07:39:51.309Z,101254.33
2023-04-09T07:42:17.986Z,101256.90
2023-04-09T07:44:44.755Z,101256.84
2023-04-09T07:47:13.097Z,101258.29
2023-04-09T07:49:40.252Z,101259.05
2023-04-09T07:52:07.674Z,101264.05
2023-04-09T07:54:35.487Z,101264.89
2023-04-09T07:57:02.942Z,101265.82
2023-04-09T07:59:30.864Z,101265.52
2023-04-09T08:01:58.095Z,101269.25
2023-04-09T08:04:25.050Z,101265.94
2023-04-09T08:06:51.895Z,101266.89
2023-04-09T08:09:19.643Z,101268.79
2023-04-09T08:11:47.411Z,101270.63
2023-04-09T08:14:15.019Z,101271.02
2023-04-09T08:16:43.951Z,101276.61
2023-04-09T08:19:11.259Z,101274.39
2023-04-09T08:21:39.368Z,101280.29
2023-04-09T08:24:07.278Z,101279.55
2023-04-09T08:26:34.232Z,101281.90
2023-04-09T08:29:00.924Z,101281.73
2023-04-09T08:31:27.651Z,101283.27
2023-04-09T08:33:54.463Z,101283.92
2023-04-09T08:36:22.151Z,101284.73
2023-04-09T08:38:49.264Z,101283.06
2023-04-09T08:41:21.027Z,101281.77
2023-04-09T08:43:57.707Z,101287.61
2023-04-09T08:46:26.260Z,101283.15
2023-04-09T08:48:53.632Z,101290.35
2023-04-09T08:51:23.031Z,101288.86
2023-04-09T08:53:55.559Z,101286.65
2023-04-09T08:56:22.872Z,101289.23
2023-04-09T08:58:49.622Z,101287.50
2023-04-09T09:01:30.675Z,101288.04
2023-04-09T09:03:57.691Z,101286.08
2023-04-09T09:06:27.985Z,101283.77
2023-04-09T09:09:17.453Z,101282.64
2023-04-09T09:11:50.312Z,101279.41
2023-04-09T09:14:20.578Z,101279.40
2023-04-09T09:16:56.236Z,101277.13
2023-04-09T09:19:26.180Z,101274.92
2023-04-09T09:22:00.623Z,101272.44
2023-04-09T09:24:34.623Z,101277.34
2023-04-09T09:27:02.742Z,101278.89
2023-04-09T09:29:29.636Z,101279.34
2023-04-09T09:31:57.167Z,101278.98
2023-04-09T09:34:25.457Z,101280.80
2023-04-09T09:36:52.789Z,101281.43
2023-04-09T09:39:19.685Z,101282.40
2023-04-09T09:41:47.220Z,101280.89
2023-04-09T09:44:31.511Z,101282.81
2023-04-09T09:46:59.174Z,101285.60
2023-04-09T09:49:26.045Z,101290.59
2023-04-09T09:51:57.594Z,101291.54
2023-04-09T09:54:26.892Z,101286.64
2023-04-09T09:56:58.238Z,101287.17
2023-04-09T09:59:32.360Z,101290.05
2023-04-09T10:02:04.179Z,101289.16
2023-04-09T10:04:35.382Z,101287.80
2023-04-09T10:07:07.390Z,101285.63
2023-04-09T10:09:36.408Z,101286.87
2023-04-09T10:12:06.960Z,101281.48
2023-04-09T10:14:36.269Z,101282.66
2023-04-09T10:17:04.218Z,101282.06
2023-04-09T10:19:35.660Z,101282.64
2023-04-09T10:22:13.880Z,101275.89
2023-04-09T10:24:41.783Z,101277.75
2023-04-09T10:27:16.174Z,101279.73
2023-04-09T10:29:48.215Z,101276.75
2023-04-09T10:32:21.236Z,101275.55
2023-04-09T10:34:49.201Z,101275.50
2023-04-09T10:37:26.063Z,101275.99
2023-04-09T10:39:53.587Z,101277.40
2023-04-09T10:42:24.954Z,101274.14
2023-04-09T10:45:24.399Z,101274.41
2023-04-09T10:47:51.853Z,101271.15
2023-04-09T10:50:25.912Z,101264.29
2023-04-09T10:52:55.014Z,101262.79
2023-04-09T10:55:36.302Z,101262.42
2023-04-09T10:58:10.477Z,101260.95
2023-04-09T11:00:40.790Z,101263.77
2023-04-09T11:03:10.967Z,101261.73
2023-04-09T11:05:40.508Z,101257.80
2023-04-09T11:08:12.380Z,101258.77
2023-04-09T11:10:39.922Z,101255.81
2023-04-09T11:13:07.226Z,101256.48
2023-04-09T11:15:36.233Z,101258.13
2023-04-09T11:18:03.690Z,101253.14
2023-04-09T11:20:31.369Z,101247.98
2023-04-09T11:22:59.908Z,101244.48
2023-04-09T11:25:28.661Z,101245.13
2023-04-09T11:27:55.767Z,101247.95
2023-04-09T11:30:22.682Z,101249.20
2023-04-09T11:32:50.453Z,101254.02
2023-04-09T11:35:19.262Z,101254.75
2023-04-09T11:37:47.289Z,101257.30
2023-04-09T11:40:19.484Z,101258.37
2023-04-09T11:42:48.817Z,101259.89
2023-04-09T11:45:16.918Z,101258.51
2023-04-09T11:47:45.408Z,101260.12
2023-04-09T11:50:13.990Z,101262.67
2023-04-09T11:52:41.873Z,101260.48
2023-04-09T11:55:12.259Z,101266.71
2023-04-09T11:57:43.258Z,101260.27
2023-04-09T12:00:17.958Z,101257.77
2023-04-09T12:02:47.336Z,101254.88
2023-04-09T12:05:29.353Z,101255.29
2023-04-09T12:08:07.333Z,101251.23
2023-04-09T12:10:38.385Z,101251.95
2023-04-09T12:13:13.798Z,101249.38
2023-04-09T12:15:43.505Z,101249.74
2023-04-09T12:18:12.139Z,101247.81
2023-04-09T12:20:41.518Z,101244.70
2023-04-09T12:23:10.082Z,101238.56
2023-04-09T12:25:42.957Z,101229.86
2023-04-09T12:28:16.699Z,101221.54
2023-04-09T12:30:44.334Z,101220.05
2023-04-09T12:33:11.598Z,101218.09
2023-04-09T12:35:38.820Z,101219.88
2023-04-09T12:38:05.747Z,101218.03
2023-04-09T12:40:32.886Z,101214.73
2023-04-09T12:42:59.656Z,101215.27
2023-04-09T12:45:26.450Z,101218.91
2023-04-09T12:47:59.268Z,101217.55
2023-04-09T12:50:26.559Z,101207.70
2023-04-09T12:52:53.297Z,101203.45
2023-04-09T12:55:20.066Z,101203.29
2023-04-09T12:57:47.397Z,101195.27
2023-04-09T13:00:14.951Z,101196.16
2023-04-09T13:02:42.362Z,101194.27
2023-04-09T13:05:09.435Z,101190.15
2023-04-09T13:07:36.286Z,101186.96
2023-04-09T13:10:03.057Z,101187.18
2023-04-09T13:12:30.270Z,101184.56
2023-04-09T13:14:57.343Z,101183.45
2023-04-09T13:17:24.057Z,101179.63
2023-04-09T13:19:51.928Z,101180.56
2023-04-09T13:22:19.151Z,101180.30
2023-04-09T13:24:45.840Z,101177.60
2023-04-09T13:27:12.439Z,101171.88
2023-04-09T13:29:39.118Z,101170.59
2023-04-09T13:32:10.828Z,101169.65
2023-04-09T13:34:39.063Z,101168.83
2023-04-09T13:37:05.667Z,101162.13
2023-04-09T13:39:33.020Z,101161.88
2023-04-09T13:42:01.393Z,101157.83
2023-04-09T13:44:29.240Z,101160.60
2023-04-09T13:46:56.106Z,101159.02
2023-04-09T13:49:22.902Z,101158.86
2023-04-09T13:51:51.160Z,101152.23
2023-04-09T13:54:17.870Z,101151.70
2023-04-09T13:56:46.283Z,101146.43
2023-04-09T13:59:13.136Z,101143.94
2023-04-09T14:01:40.059Z,101145.89
2023-04-09T14:04:06.967Z,101142.17
2023-04-09T14:06:33.869Z,101144.20
2023-04-09T14:09:00.596Z,101139.23
2023-04-09T14:11:27.450Z,101133.81
2023-04-09T14:13:55.306Z,101134.15
2023-04-09T14:16:22.416Z,101137.59
2023-04-09T14:18:49.430Z,101133.23
2023-04-09T14:21:16.633Z,101136.70
2023-04-09T14:23:43.315Z,101139.24
2023-04-09T14:26:12.069Z,101138.73
2023-04-09T14:28:38.878Z,101139.92
2023-04-09T14:31:06.479Z,101138.48
2023-04-09T14:33:33.176Z,101140.05
2023-04-09T14:35:59.859Z,101139.95
2023-04-09T14:38:26.883Z,101143.47
2023-04-09T14:40:53.794Z,101146.50
2023-04-09T14:43:20.755Z,101148.85
2023-04-09T14:45:47.486Z,101153.55
2023-04-09T14:48:14.141Z,101152.90
2023-04-09T14:50:41.334Z,101155.50
2023-04-09T14:53:08.024Z,101158.19
2023-04-09T14:55:34.747Z,101157.03
2023-04-09T14:58:04.394Z,101162.78
2023-04-09T15:00:31.992Z,101162.24
2023-04-09T15:03:00.191Z,101164.33
2023-04-09T15:05:27.235Z,101163.50
2023-04-09T15:07:55.185Z,101164.08
2023-04-09T15:10:22.108Z,101166.31
2023-04-09T15:12:48.735Z,101160.94
2023-04-09T15:15:15.423Z,101162.28
2023-04-09T15:17:42.391Z,101167.89
2023-04-09T15:20:09.478Z,101170.42
2023-04-09T15:22:36.534Z,101168.02
2023-04-09T15:25:03.721Z,101171.15
2023-04-09T15:27:30.335Z,101174.52
2023-04-09T15:29:57.027Z,101179.10
2023-04-09T15:32:23.780Z,101171.84
2023-04-09T15:34:50.669Z,101173.16
2023-04-09T15:37:17.307Z,101175.52
2023-04-09T15:39:44.122Z,101177.23
2023-04-09T15:42:11.655Z,101178.77
2023-04-09T15:44:40.215Z,101181.69
2023-04-09T15:47:06.880Z,101184.13
2023-04-09T15:49:35.881Z,101184.85
2023-04-09T15:52:02.468Z,101186.45
2023-04-09T15:54:29.030Z,101192.36
2023-04-09T15:56:55.695Z,101192.16
2023-04-09T15:59:22.265Z,101193.14
2023-04-09T16:01:49.341Z,101193.35
2023-04-09T16:04:16.090Z,101195.84
2023-04-09T16:06:42.847Z,101197.71
2023-04-09T16:09:09.511Z,101200.32
2023-04-09T16:11:37.478Z,101202.58
2023-04-09T16:14:04.430Z,101201.32
2023-04-09T16:16:31.104Z,101199.67
2023-04-09T16:18:58.061Z,101197.98
2023-04-09T16:21:24.698Z,101197.31
2023-04-09T16:23:51.717Z,101198.02
2023-04-09T16:26:18.575Z,101198.31
2023-04-09T16:28:45.475Z,101195.79
2023-04-09T16:31:12.138Z,101198.48
2023-04-09T16:33:38.721Z,101196.23
2023-04-09T16:36:05.903Z,101199.51
2023-04-09T16:38:32.769Z,101198.43
2023-04-09T16:40:59.627Z,101200.00
2023-04-09T16:43:26.281Z,101200.02
2023-04-09T16:45:53.201Z,101202.31
2023-04-09T16:48:20.041Z,101198.40
2023-04-09T16:50:46.638Z,101197.24
2023-04-09T16:53:13.534Z,101203.33
2023-04-09T16:55:40.383Z,101201.69
2023-04-09T16:58:07.025Z,101203.84
2023-04-09T17:00:35.373Z,101204.92
2023-04-09T17:03:02.483Z,101201.79
2023-04-09T17:05:29.702Z,101199.95
2023-04-09T17:07:56.310Z,101199.90
2023-04-09T17:10:22.954Z,101202.95
2023-04-09T17:12:50.665Z,101206.91
2023-04-09T17:15:17.892Z,101207.95
2023-04-09T17:17:46.024Z,101206.86
2023-04-09T17:20:12.984Z,101207.95
2023-04-09T17:22:40.165Z,101211.10
2023-04-09T17:25:07.373Z,101214.70
2023-04-09T17:27:34.005Z,101213.73
2023-04-09T17:30:00.810Z,101212.90
2023-04-09T17:32:27.724Z,101215.74
2023-04-09T17:34:54.474Z,101219.49
2023-04-09T17:37:21.355Z,101217.85
2023-04-09T17:39:48.075Z,101223.11
2023-04-09T17:42:14.941Z,101222.95
2023-04-09T17:44:43.984Z,101226.73
2023-04-09T17:47:11.662Z,101227.69
2023-04-09T17:49:39.361Z,101234.17
2023-04-09T17:52:06.272Z,101238.61
2023-04-09T17:54:34.604Z,101237.68
2023-04-09T17:57:04.262Z,101239.34
2023-04-09T17:59:32.424Z,101243.29
2023-04-09T18:01:59.478Z,101245.89
2023-04-09T18:04:27.548Z,101249.02
2023-04-09T18:06:55.048Z,101256.67
2023-04-09T18:09:22.096Z,101262.27
2023-04-09T18:11:49.366Z,101264.58
2023-04-09T18:14:16.300Z,101266.63
2023-04-09T18:16:43.381Z,101271.70
2023-04-09T18:19:11.936Z,101270.08
2023-04-09T18:21:38.892Z,101270.57
2023-04-09T18:24:06.105Z,101275.63
2023-04-09T18:26:33.959Z,101281.27
2023-04-09T18:29:01.886Z,101284.73
2023-04-09T18:31:28.760Z,101289.13
2023-04-09T18:33:56.242Z,101295.69
2023-04-09T18:36:23.540Z,101297.69
2023-04-09T18:38:50.322Z,101300.52
2023-04-09T18:41:24.302Z,101303.66
2023-04-09T18:43:51.073Z,101307.36
2023-04-09T18:46:18.347Z,101306.95
2023-04-09T18:48:47.197Z,101311.52
2023-04-09T18:51:14.680Z,101312.95
2023-04-09T18:53:42.369Z,101313.85
2023-04-09T18:56:09.462Z,101318.61
2023-04-09T18:58:36.420Z,101323.70
2023-04-09T19:01:11.780Z,101334.85
2023-04-09T19:03:39.777Z,101335.05
2023-04-09T19:06:14.778Z,101341.02
2023-04-09T19:08:41.826Z,101340.10
2023-04-09T19:11:08.646Z,101347.88
2023-04-09T19:13:36.723Z,101346.53
2023-04-09T19:16:04.560Z,101344.77
2023-04-09T19:18:32.257Z,101343.91
2023-04-09T19:20:59.101Z,101353.77
2023-04-09T19:23:27.174Z,101359.36
2023-04-09T19:25:55.407Z,101361.06
2023-04-09T19:28:22.974Z,101363.04
2023-04-09T19:30:53.734Z,101366.33
2023-04-09T19:33:24.967Z,101367.88
2023-04-09T19:35:53.842Z,101370.09
2023-04-09T19:38:21.452Z,101370.82
2023-04-09T19:40:48.295Z,101377.66
2023-04-09T19:43:14.986Z,101382.27
2023-04-09T19:45:42.811Z,101382.17
2023-04-09T19:48:09.697Z,101387.95
2023-04-09T19:50:38.120Z,101389.33
2023-04-09T19:53:06.227Z,101386.15
2023-04-09T19:55:34.137Z,101385.28
2023-04-09T19:58:01.536Z,101386.30
2023-04-09T20:00:29.120Z,101384.80
2023-04-09T20:02:56.091Z,101382.59
2023-04-09T20:05:23.218Z,101383.33
2023-04-09T20:07:51.693Z,101386.92
2023-04-09T20:10:18.943Z,101391.00
2023-04-09T20:12:50.080Z,101391.92
2023-04-09T20:15:20.021Z,101391.95
2023-04-09T20:17:48.205Z,101395.45
2023-04-09T20:20:19.695Z,101398.17
2023-04-09T20:22:55.642Z,101398.56
2023-04-09T20:25:24.040Z,101400.05
2023-04-09T20:27:54.332Z,101400.81
2023-04-09T20:30:21.380Z,101401.14
2023-04-09T20:32:49.453Z,101400.43
2023-04-09T20:35:16.452Z,101404.76
2023-04-09T20:37:50.293Z,101413.20
2023-04-09T20:40:17.221Z,101421.76
2023-04-09T20:42:44.979Z,101421.90
2023-04-09T20:45:13.126Z,101422.21
2023-04-09T20:47:40.029Z,101423.16
2023-04-09T20:50:07.385Z,101423.93
2023-04-09T20:52:35.180Z,101426.91
2023-04-09T20:55:02.930Z,101423.40
2023-04-09T20:57:29.779Z,101428.10
2023-04-09T20:59:57.700Z,101428.56
2023-04-09T21:02:25.802Z,101430.73
2023-04-09T21:04:52.935Z,101430.50
2023-04-09T21:07:20.690Z,101429.77
2023-04-09T21:09:47.560Z,101433.83
2023-04-09T21:12:14.425Z,101436.73
2023-04-09T21:14:41.101Z,101435.80
2023-04-09T21:17:07.953Z,101436.56
2023-04-09T21:19:34.754Z,101439.00
2023-04-09T21:22:01.667Z,101438.88
2023-04-09T21:24:28.421Z,101440.54
2023-04-09T21:26:55.937Z,101444.67
2023-04-09T21:29:22.746Z,101445.30
2023-04-09T21:31:49.548Z,101451.07
2023-04-09T21:34:16.842Z,101451.52
2023-04-09T21:36:45.353Z,101453.94
2023-04-09T21:39:12.569Z,101454.27
2023-04-09T21:41:39.514Z,101453.86
2023-04-09T21:44:08.591Z,101453.63
2023-04-09T21:46:40.848Z,101461.52
2023-04-09T21:49:08.199Z,101462.71
2023-04-09T21:51:34.782Z,101464.32
2023-04-09T21:54:03.652Z,101461.18
2023-04-09T21:56:30.678Z,101462.41
2023-04-09T21:58:57.504Z,101460.71
2023-04-09T22:01:29.109Z,101461.14
2023-04-09T22:03:57.899Z,101458.42
2023-04-09T22:06:24.767Z,101457.47
2023-04-09T22:08:56.084Z,101456.36
2023-04-09T22:11:28.441Z,101461.45
2023-04-09T22:13:57.011Z,101460.35
2023-04-09T22:16:25.162Z,101465.33
2023-04-09T22:18:53.529Z,101464.10
2023-04-09T22:21:20.963Z,101459.61
2023-04-09T22:23:47.651Z,101458.59
2023-04-09T22:26:14.503Z,101459.80
2023-04-09T22:28:41.187Z,101462.14
2023-04-09T22:31:08.028Z,101470.39
2023-04-09T22:33:34.787Z,101466.84
2023-04-09T22:36:01.886Z,101470.61
2023-04-09T22:38:28.768Z,101472.45
2023-04-09T22:40:56.101Z,101473.98
2023-04-09T22:43:23.309Z,101468.16
2023-04-09T22:45:54.776Z,101464.23
2023-04-09T22:48:22.096Z,101466.77
2023-04-09T22:50:49.972Z,101467.73
2023-04-09T22:53:19.803Z,101467.75
2023-04-09T22:55:51.306Z,101469.71
2023-04-09T22:58:18.693Z,101472.95
2023-04-09T23:00:45.507Z,101474.80
2023-04-09T23:03:12.337Z,101477.77
2023-04-09T23:05:40.469Z,101473.34
2023-04-09T23:08:07.539Z,101477.00
2023-04-09T23:10:34.473Z,101482.36
2023-04-09T23:13:01.201Z,101480.98
2023-04-09T23:15:28.716Z,101482.09
2023-04-09T23:17:55.552Z,101480.95
2023-04-09T23:20:22.427Z,101479.33
2023-04-09T23:22:49.370Z,101481.16
2023-04-09T23:25:16.635Z,101485.48
2023-04-09T23:27:43.788Z,101484.84
2023-04-09T23:30:11.445Z,101483.63
2023-04-09T23:32:38.122Z,101486.77
2023-04-09T23:35:05.503Z,101483.45
2023-04-09T23:37:32.194Z,101480.39
2023-04-09T23:39:58.801Z,101485.32
2023-04-09T23:42:27.472Z,101481.04
2023-04-09T23:44:54.052Z,101479.09
2023-04-09T23:47:21.070Z,101480.78
2023-04-09T23:49:47.738Z,101485.02
2023-04-09T23:52:14.308Z,101486.95
2023-04-09T23:54:49.122Z,101478.55
2023-04-09T23:57:16.124Z,101482.88
2023-04-09T23:59:42.719Z,101483.98
